Ramsgate, United Kingdom

10:29 PM GMT on February 07, 2016 (GMT +0000)
Cliffsend | | Change Station
CLOSE
Current Station
Personal Weather Station
Location: Cliffs End,
Elevation: 49 ft
Nearby Weather Stations

Elev 49 ft 51.33 °N, 1.37 °E | Updated 5 seconds ago

Light Rain
Light Rain
47.3 °F
Feels Like 41 °F
N
14.5
Wind Variable Wind from North
Gusts 16.8 mph

Today
High -- | Low -- °F
--% Chance of Precip.
Yesterday
High -- | Low -- °F
Precip. -- in
Pressure 29.15 in
Visibility 6.2 miles
Clouds Scattered Clouds 1100 ft
Mostly Cloudy 1300 ft
Windchill 41 °F
Dew Point 45 °F
Humidity 91%
Rainfall 0.00 in
Snow Depth Not available.
7:23 AM 4:54 PM
Waning Crescent, 1% visible
METAR EGMC 072220Z 20026G36KT 9999 -RA SCT011 BKN013 08/06 Q0987
Pressure 29.15 in
Visibility 6.2 miles
Clouds Scattered Clouds 1100 ft
Mostly Cloudy 1300 ft
Windchill 41 °F
Dew Point 45 °F
Humidity 91%
Rainfall 0.00 in
Snow Depth Not available.
7:23 AM 4:54 PM
Waning Crescent, 1% visible
METAR EGMC 072220Z 20026G36KT 9999 -RA SCT011 BKN013 08/06 Q0987

10-Day Weather Forecast

Almanac

Astronomy

Feb. 07, 2016 Rise Set
Actual Time
Civil Twilight
Nautical Twilight
Astronomical Twilight
Moon
Length of Visible Light
Length of Day
Tomorrow will be .
, % of the Moon is Illuminated

Today's Extremes

Country Highs Country Lows

Community

WunderPhotos

Upload Photos

1,891,318 photos uploaded!

WunderBlog® & News

Nearby

Air Quality

  Air Quality AQ Index Pollutant
Not available.

Snow Depth

Station Depth Elevation

Earthquake Activity

City Distance Mag. Time & Date
Minimum magnitude displayed is 2.5.

Coastal Water Temperatures

Place Temperature

Stations

Nearby Weather Stations

Station Location Temp. Windchill Dew Point Humidity Wind Precip. Elev Updated Type